Time;durP1;ratioP1;P1;durP2;ratioP2;P2;SDS_P1;SDS_P2;PMS_P1;PMS_P2;Temp;Humidity;BMP_temperature;BMP_pressure;BME280_temperature;BME280_humidity;BME280_pressure;Samples;Min_cycle;Max_cycle;Signal;HPM_P1;HPM_P2
2021/01/08 00:00:42;;;;;;;14.03;11.73;;;;;;;2.87;70.04;95214.63;5088490;28;20230;-80
2021/01/08 00:03:08;;;;;;;13.80;11.57;;;;;;;2.85;69.71;95217.31;5074790;28;20242;-80
2021/01/08 00:05:35;;;;;;;15.33;12.00;;;;;;;2.85;69.66;95224.94;5086459;28;20216;-80
2021/01/08 00:08:01;;;;;;;12.77;11.37;;;;;;;2.83;69.50;95216.63;5093178;28;20200;-80
2021/01/08 00:10:29;;;;;;;13.93;11.07;;;;;;;2.84;69.77;95210.59;5090707;28;20192;-79
2021/01/08 00:12:55;;;;;;;14.67;11.23;;;;;;;2.83;69.85;95206.47;5076903;28;20220;-80
2021/01/08 00:15:21;;;;;;;14.83;11.87;;;;;;;2.82;69.67;95206.59;5083195;28;20215;-80
2021/01/08 00:17:47;;;;;;;17.63;11.50;;;;;;;2.81;69.71;95210.88;5092569;28;20200;-77
2021/01/08 00:20:13;;;;;;;13.90;10.83;;;;;;;2.77;69.50;95207.81;5082457;28;20561;-80
2021/01/08 00:22:40;;;;;;;13.13;11.47;;;;;;;2.81;69.84;95212.63;5085353;28;20570;-80
2021/01/08 00:25:07;;;;;;;13.37;11.03;;;;;;;2.84;69.95;95210.59;5083877;28;20266;-79
2021/01/08 00:27:33;;;;;;;14.93;11.97;;;;;;;2.86;69.47;95205.38;5075333;28;20219;-80
2021/01/08 00:29:59;;;;;;;13.90;11.13;;;;;;;2.81;69.61;95207.53;5092405;28;20579;-80
2021/01/08 00:32:25;;;;;;;13.40;11.33;;;;;;;2.84;69.58;95204.72;5083659;28;20192;-81
2021/01/08 00:34:51;;;;;;;13.57;11.90;;;;;;;2.86;69.41;95203.66;5072384;28;20217;-78
2021/01/08 00:37:17;;;;;;;14.80;11.53;;;;;;;2.84;69.69;95205.53;5082077;28;20203;-81
2021/01/08 00:39:44;;;;;;;13.80;11.57;;;;;;;2.84;69.18;95200.44;5091881;28;20851;-82
2021/01/08 00:42:10;;;;;;;15.40;10.97;;;;;;;2.82;69.53;95196.44;5081765;28;20201;-80
2021/01/08 00:44:36;;;;;;;15.70;12.30;;;;;;;2.84;68.91;95203.00;5078168;28;20313;-79
2021/01/08 00:47:05;;;;;;;15.67;11.63;;;;;;;2.83;68.99;95196.31;5082422;28;20233;-80
2021/01/08 00:49:31;;;;;;;13.37;10.83;;;;;;;2.80;69.17;95199.13;5077176;28;20222;-80
2021/01/08 00:51:57;;;;;;;14.70;12.07;;;;;;;2.76;69.20;95195.25;5083950;28;20575;-80
2021/01/08 00:54:23;;;;;;;14.13;11.00;;;;;;;2.76;69.18;95195.25;5074878;28;20223;-80
2021/01/08 00:56:51;;;;;;;13.97;11.43;;;;;;;2.74;69.26;95199.66;5091493;28;20200;-80
2021/01/08 00:59:17;;;;;;;12.77;10.37;;;;;;;2.71;68.96;95194.84;5089277;28;20208;-79
2021/01/08 01:01:43;;;;;;;14.33;11.70;;;;;;;2.75;69.56;95198.72;5072010;28;20200;-81
2021/01/08 01:04:09;;;;;;;12.77;11.37;;;;;;;2.79;69.08;95200.03;5071473;28;20220;-80
2021/01/08 01:06:35;;;;;;;13.50;11.37;;;;;;;2.76;69.11;95198.59;5091705;28;20569;-80
2021/01/08 01:09:03;;;;;;;14.00;11.40;;;;;;;2.82;69.45;95202.31;5085357;28;20197;-82
2021/01/08 01:11:29;;;;;;;13.97;11.73;;;;;;;2.84;69.05;95209.81;5077329;28;20251;-80
2021/01/08 01:13:57;;;;;;;14.53;11.23;;;;;;;2.82;68.70;95204.88;5088434;28;20201;-79
2021/01/08 01:16:24;;;;;;;14.40;11.43;;;;;;;2.78;68.78;95211.16;5077005;28;20192;-77
2021/01/08 01:18:52;;;;;;;13.77;11.20;;;;;;;2.77;69.03;95212.91;5077844;28;20204;-84
2021/01/08 01:21:18;;;;;;;13.77;11.03;;;;;;;2.74;68.99;95217.44;5075253;28;20188;-80
2021/01/08 01:23:44;;;;;;;12.93;10.60;;;;;;;2.76;68.58;95215.56;5091231;28;20272;-79
2021/01/08 01:26:10;;;;;;;13.47;11.00;;;;;;;2.71;68.78;95221.06;5079416;28;20216;-80
2021/01/08 01:28:36;;;;;;;12.83;10.70;;;;;;;2.69;68.74;95219.63;5070862;28;20205;-82
2021/01/08 01:31:04;;;;;;;13.80;10.97;;;;;;;2.71;68.51;95215.19;5072380;28;20326;-80
2021/01/08 01:33:30;;;;;;;13.50;11.07;;;;;;;2.74;68.85;95218.25;5071067;28;20258;-78
2021/01/08 01:35:57;;;;;;;12.53;10.90;;;;;;;2.74;68.58;95222.53;5078972;28;20268;-79
2021/01/08 01:38:23;;;;;;;13.63;11.07;;;;;;;2.75;68.97;95222.41;5090648;28;20196;-80
2021/01/08 01:40:51;;;;;;;12.70;10.47;;;;;;;2.79;68.68;95222.94;5083330;28;20208;-80
2021/01/08 01:43:18;;;;;;;11.70;9.67;;;;;;;2.79;68.71;95217.84;5070476;28;20211;-80
2021/01/08 01:45:44;;;;;;;13.77;11.23;;;;;;;2.80;68.09;95224.53;5076057;28;20216;-81
2021/01/08 01:48:11;;;;;;;15.07;11.20;;;;;;;2.80;68.39;95227.06;5090791;28;20249;-78
2021/01/08 01:50:37;;;;;;;13.93;11.20;;;;;;;2.78;68.18;95221.31;5085663;28;20243;-81
2021/01/08 01:53:03;;;;;;;12.90;10.97;;;;;;;2.78;68.53;95223.88;5070098;28;20672;-77
2021/01/08 01:55:30;;;;;;;13.23;11.20;;;;;;;2.72;68.74;95227.75;5073174;28;20216;-78
2021/01/08 01:57:58;;;;;;;13.50;11.17;;;;;;;2.77;68.43;95229.88;5090567;28;20211;-80
2021/01/08 02:00:25;;;;;;;12.57;10.83;;;;;;;2.81;68.52;95227.88;5087336;28;20200;-80
2021/01/08 02:02:54;;;;;;;14.00;11.17;;;;;;;2.82;68.59;95232.03;5070713;28;20204;-78
2021/01/08 02:05:22;;;;;;;13.13;10.90;;;;;;;2.81;68.60;95233.75;5071130;28;20246;-77
2021/01/08 02:07:57;;;;;;;14.03;11.27;;;;;;;2.81;68.68;95228.69;5074812;28;20650;-82
2021/01/08 02:10:26;;;;;;;13.10;10.57;;;;;;;2.80;68.78;95231.34;5087224;28;20196;-80
2021/01/08 02:12:54;;;;;;;13.10;10.43;;;;;;;2.75;68.53;95231.75;5069826;28;20885;-80
2021/01/08 02:15:20;;;;;;;13.70;11.20;;;;;;;2.73;68.57;95229.34;5071687;28;20223;-81
2021/01/08 02:17:47;;;;;;;12.30;10.60;;;;;;;2.76;69.11;95226.53;5090128;28;20197;-81
2021/01/08 02:20:14;;;;;;;13.70;10.87;;;;;;;2.76;68.82;95225.75;5088483;28;20196;-80
2021/01/08 02:22:47;;;;;;;13.37;10.70;;;;;;;2.75;68.71;95231.75;5078608;28;20193;-83
2021/01/08 02:25:16;;;;;;;12.37;10.73;;;;;;;2.75;68.83;95231.75;5070366;28;20228;-81
2021/01/08 02:28:01;;;;;;;13.53;10.53;;;;;;;2.65;68.72;95233.53;5070340;28;20197;-79
2021/01/08 02:30:28;;;;;;;13.17;10.50;;;;;;;2.65;68.88;95229.25;5079386;28;20195;-79
2021/01/08 02:32:54;;;;;;;13.77;10.73;;;;;;;2.61;68.53;95230.47;5089998;28;20207;-80
2021/01/08 02:35:21;;;;;;;13.10;10.67;;;;;;;2.63;68.99;95227.78;5070339;28;20307;-80
2021/01/08 02:37:49;;;;;;;12.73;10.90;;;;;;;2.68;68.72;95228.19;5070540;28;20208;-82
2021/01/08 02:40:17;;;;;;;13.33;10.63;;;;;;;2.64;68.95;95225.09;5087820;28;20282;-81
2021/01/08 02:42:48;;;;;;;12.30;10.70;;;;;;;2.67;68.91;95224.84;5090427;28;20210;-82
2021/01/08 02:45:15;;;;;;;13.93;11.10;;;;;;;2.60;68.93;95220.44;5087207;28;20220;-78
2021/01/08 02:47:41;;;;;;;13.17;10.80;;;;;;;2.60;69.24;95222.97;5090094;28;20288;-80
2021/01/08 02:50:08;;;;;;;13.77;11.10;;;;;;;2.60;68.98;95218.69;5079631;28;20192;-82
2021/01/08 02:52:38;;;;;;;13.70;10.43;;;;;;;2.60;68.92;95228.06;5087143;28;20255;-80
2021/01/08 02:55:07;;;;;;;13.10;11.03;;;;;;;2.60;68.97;95220.44;5069453;28;20224;-81
2021/01/08 02:57:35;;;;;;;14.90;11.50;;;;;;;2.55;69.07;95223.38;5071317;28;20200;-80
2021/01/08 03:00:03;;;;;;;12.23;10.67;;;;;;;2.49;69.08;95223.94;5083030;28;20193;-80
2021/01/08 03:02:29;;;;;;;13.03;10.90;;;;;;;2.48;69.35;95213.91;5071149;28;20205;-80
2021/01/08 03:04:55;;;;;;;13.63;11.37;;;;;;;2.45;69.66;95220.06;5089735;28;20635;-78
2021/01/08 03:07:22;;;;;;;13.33;10.97;;;;;;;2.45;69.70;95214.16;5081527;28;20223;-78
2021/01/08 03:09:48;;;;;;;14.57;11.47;;;;;;;2.49;69.42;95221.41;5069063;28;20197;-76
2021/01/08 03:12:15;;;;;;;13.77;11.17;;;;;;;2.51;69.44;95226.31;5070041;28;20215;-79
2021/01/08 03:14:43;;;;;;;14.03;10.80;;;;;;;2.54;69.67;95223.50;5071951;28;20230;-80
2021/01/08 03:17:09;;;;;;;14.97;11.73;;;;;;;2.56;69.46;95224.16;5089791;28;20203;-80
2021/01/08 03:19:35;;;;;;;14.23;11.57;;;;;;;2.56;69.20;95221.63;5087791;28;20208;-81
2021/01/08 03:22:01;;;;;;;13.67;11.27;;;;;;;2.55;69.60;95223.38;5069892;28;20262;-82
2021/01/08 03:24:27;;;;;;;13.73;11.30;;;;;;;2.56;69.18;95227.50;5069918;28;20282;-79
2021/01/08 03:26:53;;;;;;;13.90;11.43;;;;;;;2.57;69.51;95229.13;5069836;28;20808;-80
2021/01/08 03:29:19;;;;;;;12.90;10.87;;;;;;;2.53;69.55;95222.69;5069106;28;20207;-80
2021/01/08 03:31:46;;;;;;;12.50;10.87;;;;;;;2.54;69.76;95221.75;5069637;28;20864;-77
2021/01/08 03:34:12;;;;;;;13.80;11.27;;;;;;;2.48;69.71;95216.44;5069072;28;20226;-80
2021/01/08 03:36:38;;;;;;;13.53;11.23;;;;;;;2.52;69.72;95226.19;5069423;28;20777;-80
2021/01/08 03:39:04;;;;;;;13.83;11.37;;;;;;;2.54;69.33;95219.22;5069770;28;20192;-79
2021/01/08 03:41:30;;;;;;;13.67;11.50;;;;;;;2.54;69.55;95228.59;5089113;28;20196;-78
2021/01/08 03:43:56;;;;;;;13.40;11.43;;;;;;;2.52;69.35;95226.19;5092435;28;20196;-80
2021/01/08 03:46:21;;;;;;;12.53;11.00;;;;;;;2.56;69.40;95222.44;5091737;28;20212;-81
2021/01/08 03:48:48;;;;;;;13.73;11.73;;;;;;;2.58;69.41;95228.19;5093139;28;20227;-80
2021/01/08 03:51:14;;;;;;;14.97;11.23;;;;;;;2.54;69.80;95220.97;5092007;28;20199;-80
2021/01/08 03:53:40;;;;;;;12.73;11.03;;;;;;;2.50;69.48;95214.56;5081420;28;20201;-80
2021/01/08 03:56:06;;;;;;;14.93;11.87;;;;;;;2.51;69.54;95216.94;5072656;28;20203;-80
2021/01/08 03:58:33;;;;;;;15.40;12.00;;;;;;;2.52;69.57;95215.22;5072769;28;20205;-79
2021/01/08 04:00:59;;;;;;;16.60;12.47;;;;;;;2.44;70.02;95210.81;5072865;28;20196;-80
2021/01/08 04:03:25;;;;;;;14.30;11.47;;;;;;;2.42;69.64;95208.41;5072973;28;20196;-80
2021/01/08 04:05:52;;;;;;;13.63;11.33;;;;;;;2.43;69.67;95212.56;5073010;28;20807;-80
2021/01/08 04:08:18;;;;;;;13.40;11.60;;;;;;;2.39;70.04;95206.16;5072936;28;20211;-78
2021/01/08 04:10:44;;;;;;;14.13;11.63;;;;;;;2.38;70.17;95209.63;5072157;28;20201;-83
2021/01/08 04:13:10;;;;;;;13.90;11.70;;;;;;;2.41;70.28;95211.09;5072094;28;20581;-81
2021/01/08 04:15:36;;;;;;;14.73;12.07;;;;;;;2.45;70.31;95212.44;5072303;28;20220;-77
2021/01/08 04:18:02;;;;;;;14.63;11.87;;;;;;;2.49;69.71;95216.31;5072638;28;20200;-79
2021/01/08 04:20:28;;;;;;;14.60;11.90;;;;;;;2.45;70.06;95219.25;5072294;28;20769;-80
2021/01/08 04:22:54;;;;;;;14.27;11.57;;;;;;;2.43;69.80;95210.03;5072095;28;20196;-78
2021/01/08 04:25:20;;;;;;;15.07;12.03;;;;;;;2.45;69.81;95214.16;5072192;28;20217;-82
2021/01/08 04:27:46;;;;;;;15.13;11.53;;;;;;;2.48;70.06;95212.16;5071966;28;20220;-80
2021/01/08 04:30:13;;;;;;;14.73;12.00;;;;;;;2.42;69.74;95221.13;5072193;28;20200;-81
2021/01/08 04:32:39;;;;;;;15.67;11.87;;;;;;;2.45;69.88;95216.72;5072519;28;20946;-78
2021/01/08 04:35:07;;;;;;;15.10;11.93;;;;;;;2.51;70.18;95219.50;5071807;28;20315;-80
2021/01/08 04:37:32;;;;;;;16.93;12.47;;;;;;;2.49;69.90;95221.41;5072009;28;20227;-78
2021/01/08 04:39:59;;;;;;;15.83;12.33;;;;;;;2.38;70.51;95213.91;5072020;28;20621;-80
2021/01/08 04:42:25;;;;;;;15.07;12.23;;;;;;;2.43;70.20;95212.56;5072330;28;20209;-82
2021/01/08 04:44:51;;;;;;;15.13;12.50;;;;;;;2.38;70.14;95222.31;5072022;28;20217;-80
2021/01/08 04:47:18;;;;;;;16.93;12.87;;;;;;;2.34;70.47;95222.72;5071413;28;20220;-80
2021/01/08 04:49:44;;;;;;;15.90;12.73;;;;;;;2.33;70.38;95213.50;5072143;28;20390;-81
2021/01/08 04:52:12;;;;;;;15.77;12.27;;;;;;;2.25;70.57;95219.28;5071199;28;20201;-79
2021/01/08 04:54:38;;;;;;;14.77;12.20;;;;;;;2.32;70.36;95215.22;5071857;28;20882;-80
2021/01/08 04:57:07;;;;;;;15.40;12.57;;;;;;;2.36;70.39;95220.84;5083082;28;20204;-81
2021/01/08 04:59:33;;;;;;;15.80;12.20;;;;;;;2.37;70.44;95218.19;5087475;28;20200;-81
2021/01/08 05:01:59;;;;;;;17.10;12.97;;;;;;;2.40;70.41;95220.47;5071345;28;20200;-80
2021/01/08 05:04:26;;;;;;;16.50;12.70;;;;;;;2.31;70.37;95223.78;5073748;28;20220;-77
2021/01/08 05:06:52;;;;;;;15.50;12.27;;;;;;;2.38;70.41;95224.88;5087357;28;20217;-80
2021/01/08 05:09:18;;;;;;;15.63;12.43;;;;;;;2.38;70.24;95219.78;5072266;28;20200;-80
2021/01/08 05:11:45;;;;;;;16.97;13.03;;;;;;;2.42;70.17;95221.13;5091670;28;20207;-77
2021/01/08 05:14:15;;;;;;;15.57;12.10;;;;;;;2.38;70.67;95224.06;5076056;28;20600;-79
2021/01/08 05:16:41;;;;;;;16.43;12.77;;;;;;;2.36;71.15;95214.03;5073139;28;20193;-78
2021/01/08 05:19:07;;;;;;;15.87;12.93;;;;;;;2.36;71.13;95218.31;5090717;28;20259;-81
2021/01/08 05:21:34;;;;;;;17.27;13.47;;;;;;;2.31;71.20;95215.41;5088906;28;20204;-79
2021/01/08 05:24:02;;;;;;;15.53;12.70;;;;;;;2.30;71.22;95214.59;5070676;28;20679;-81
2021/01/08 05:26:30;;;;;;;16.17;12.87;;;;;;;2.21;71.39;95209.50;5070947;28;20346;-79
2021/01/08 05:28:58;;;;;;;16.73;12.97;;;;;;;2.23;71.35;95217.81;5070536;28;20661;-79
2021/01/08 05:31:27;;;;;;;16.60;12.70;;;;;;;2.21;71.78;95219.66;5070958;28;20201;-81
2021/01/08 05:33:53;;;;;;;15.73;12.87;;;;;;;2.26;71.40;95222.63;5070288;28;20196;-79
2021/01/08 05:36:20;;;;;;;17.10;13.53;;;;;;;2.26;71.78;95222.63;5070983;28;20216;-81
2021/01/08 05:38:48;;;;;;;16.87;13.43;;;;;;;2.30;71.48;95224.75;5085897;28;20201;-80
2021/01/08 05:41:14;;;;;;;16.43;13.30;;;;;;;2.28;71.55;95218.19;5072236;28;20208;-78
2021/01/08 05:43:41;;;;;;;16.37;12.87;;;;;;;2.26;71.62;95223.41;5077152;28;20208;-82
2021/01/08 05:46:12;;;;;;;15.20;12.63;;;;;;;2.20;71.62;95231.56;5072261;28;20220;-81
2021/01/08 05:48:42;;;;;;;15.53;12.67;;;;;;;2.16;71.75;95230.22;5081396;28;20200;-81
2021/01/08 05:51:09;;;;;;;16.80;13.10;;;;;;;2.19;71.85;95231.69;5078786;28;20192;-82
2021/01/08 05:53:37;;;;;;;16.93;13.37;;;;;;;2.20;71.52;95233.28;5073369;28;20212;-82
2021/01/08 05:56:03;;;;;;;15.20;12.67;;;;;;;2.18;71.38;95233.44;5071944;28;20319;-81
2021/01/08 05:58:29;;;;;;;18.00;13.40;;;;;;;2.16;71.98;95232.75;5086393;28;20211;-79
2021/01/08 06:00:56;;;;;;;18.73;14.03;;;;;;;2.10;71.50;95230.78;5085203;28;20223;-80
2021/01/08 06:03:23;;;;;;;18.23;13.87;;;;;;;2.11;72.00;95242.53;5081545;28;20231;-79
2021/01/08 06:05:54;;;;;;;15.47;12.47;;;;;;;2.17;71.62;95236.09;5086522;28;20227;-80
2021/01/08 06:08:25;;;;;;;15.93;12.73;;;;;;;2.15;71.50;95238.78;5088823;28;20301;-79
2021/01/08 06:10:54;;;;;;;16.53;13.10;;;;;;;2.10;71.65;95245.22;5089649;28;20228;-80
2021/01/08 06:13:22;;;;;;;15.60;12.40;;;;;;;2.11;72.06;95241.72;5072971;28;20279;-80
2021/01/08 06:15:51;;;;;;;15.80;12.43;;;;;;;2.17;71.64;95238.63;5088715;28;20223;-80
2021/01/08 06:18:20;;;;;;;14.93;12.73;;;;;;;2.21;71.87;95242.53;5089686;28;20196;-80
2021/01/08 06:20:47;;;;;;;15.50;12.77;;;;;;;2.20;71.29;95240.91;5090054;28;20295;-79
2021/01/08 06:23:36;;;;;;;15.40;12.97;;;;;;;2.19;71.36;95244.38;5083528;28;20192;-79
2021/01/08 06:26:04;;;;;;;17.23;13.30;;;;;;;2.17;71.82;95244.53;5088941;28;20229;-81
2021/01/08 06:28:35;;;;;;;15.57;12.53;;;;;;;2.23;71.69;95248.28;5089924;28;20681;-79
2021/01/08 06:31:04;;;;;;;15.80;12.77;;;;;;;2.26;71.43;95248.00;5090271;28;20291;-81
2021/01/08 06:33:37;;;;;;;16.67;12.77;;;;;;;2.24;71.63;95244.81;5090163;28;20203;-81
2021/01/08 06:36:15;;;;;;;15.93;12.50;;;;;;;2.26;71.43;95251.34;5089419;28;20566;-79
2021/01/08 06:38:46;;;;;;;14.13;11.90;;;;;;;2.28;71.66;95246.13;5077286;28;20579;-83
2021/01/08 06:41:14;;;;;;;16.23;12.73;;;;;;;2.27;71.48;95252.16;5088745;28;20226;-82
2021/01/08 06:43:41;;;;;;;15.03;12.03;;;;;;;2.27;71.31;95255.50;5077955;28;20288;-81
2021/01/08 06:46:17;;;;;;;13.83;11.47;;;;;;;2.29;71.20;95256.16;5087465;28;20589;-81
2021/01/08 06:48:46;;;;;;;15.83;11.70;;;;;;;2.24;71.82;95253.22;5078231;28;20196;-80
2021/01/08 06:51:25;;;;;;;14.37;11.50;;;;;;;2.23;71.66;95251.63;5090970;28;20204;-79
2021/01/08 06:53:55;;;;;;;12.93;10.87;;;;;;;2.21;72.29;95260.31;5076202;28;20228;-79
2021/01/08 06:56:27;;;;;;;12.50;10.33;;;;;;;2.21;72.48;95261.09;5088617;28;20208;-79
2021/01/08 06:58:54;;;;;;;15.23;11.60;;;;;;;2.11;72.99;95267.13;5088639;28;20199;-80
2021/01/08 07:01:25;;;;;;;12.37;10.77;;;;;;;2.05;73.36;95260.81;5090084;28;20219;-79
2021/01/08 07:03:52;;;;;;;13.30;10.70;;;;;;;2.16;72.93;95265.78;5077341;28;20193;-80
2021/01/08 07:06:18;;;;;;;13.17;11.00;;;;;;;2.18;72.91;95265.63;5088821;28;20224;-79
2021/01/08 07:08:44;;;;;;;13.73;10.87;;;;;;;2.16;73.09;95275.94;5076217;28;20212;-79
2021/01/08 07:11:22;;;;;;;13.63;10.70;;;;;;;2.16;73.32;95260.69;5089431;28;20196;-78
2021/01/08 07:13:48;;;;;;;13.87;10.93;;;;;;;2.22;72.85;95269.53;5086299;28;20214;-79
2021/01/08 07:16:19;;;;;;;12.80;10.17;;;;;;;2.24;72.83;95267.66;5090793;28;20196;-79
2021/01/08 07:18:45;;;;;;;12.73;10.30;;;;;;;2.23;73.34;95281.28;5082876;28;20205;-80
2021/01/08 07:21:22;;;;;;;11.90;9.83;;;;;;;2.10;73.33;95280.75;5073655;28;20706;-79
2021/01/08 07:23:50;;;;;;;11.90;9.87;;;;;;;2.11;73.40;95288.25;5083038;28;20196;-80
2021/01/08 07:26:18;;;;;;;11.77;9.17;;;;;;;2.21;73.37;95285.69;5085332;28;20223;-78
2021/01/08 07:28:50;;;;;;;10.70;9.27;;;;;;;2.20;73.50;95284.09;5089739;28;20710;-79
2021/01/08 07:31:16;;;;;;;10.37;8.67;;;;;;;2.21;73.30;95283.97;5091370;28;20224;-82
2021/01/08 07:33:47;;;;;;;10.30;7.97;;;;;;;2.28;73.03;95291.84;5093092;28;20246;-80
2021/01/08 07:36:22;;;;;;;10.63;8.73;;;;;;;2.25;73.30;95294.66;5093551;28;20200;-80
2021/01/08 07:38:48;;;;;;;10.40;8.50;;;;;;;2.16;73.49;95295.44;5086223;28;20596;-80
2021/01/08 07:41:32;;;;;;;9.47;8.17;;;;;;;2.20;73.35;95302.66;5092095;28;20287;-80
2021/01/08 07:43:59;;;;;;;11.50;8.07;;;;;;;2.17;73.46;95300.38;5079311;28;20192;-78
2021/01/08 07:46:30;;;;;;;9.60;8.00;;;;;;;2.22;73.04;95305.09;5088407;28;20230;-82
2021/01/08 07:49:00;;;;;;;11.57;8.60;;;;;;;2.12;73.43;95305.06;5081866;28;20196;-82
2021/01/08 07:51:47;;;;;;;10.70;8.20;;;;;;;2.23;83.95;95307.50;5079973;28;20189;-80
2021/01/08 07:54:13;;;;;;;10.83;8.33;;;;;;;2.57;89.33;95312.97;5083302;28;20223;-79
2021/01/08 07:57:04;;;;;;;10.53;8.20;;;;;;;2.59;73.35;95306.03;5076697;28;20200;-79
2021/01/08 07:59:30;;;;;;;10.70;8.60;;;;;;;2.66;72.26;95311.38;5081695;28;20250;-80
2021/01/08 08:01:56;;;;;;;10.90;8.67;;;;;;;2.50;72.27;95313.66;5086777;28;20241;-79
2021/01/08 08:04:27;;;;;;;10.17;9.07;;;;;;;2.45;72.38;95310.72;5090471;28;20247;-79
2021/01/08 08:06:54;;;;;;;10.73;8.93;;;;;;;2.36;72.50;95315.66;5075225;28;20716;-80
2021/01/08 08:09:20;;;;;;;11.07;9.30;;;;;;;2.38;71.83;95326.47;5083277;28;20231;-81
2021/01/08 08:11:47;;;;;;;12.50;9.50;;;;;;;2.34;72.32;95317.50;5085924;28;20737;-79
2021/01/08 08:14:14;;;;;;;11.70;9.70;;;;;;;2.39;72.18;95329.81;5075479;28;20217;-80
2021/01/08 08:16:42;;;;;;;12.80;10.30;;;;;;;2.36;71.93;95333.44;5088053;28;20218;-80
2021/01/08 08:19:10;;;;;;;13.40;9.53;;;;;;;2.38;71.90;95323.94;5079962;28;20207;-79
2021/01/08 08:21:36;;;;;;;12.67;9.73;;;;;;;2.40;71.71;95334.78;5080433;28;20200;-80
2021/01/08 08:24:04;;;;;;;13.17;10.33;;;;;;;2.58;71.55;95334.09;5087836;28;20211;-80
2021/01/08 08:26:31;;;;;;;12.70;10.00;;;;;;;2.60;71.09;95338.13;5074280;28;20211;-81
2021/01/08 08:28:58;;;;;;;13.17;10.03;;;;;;;2.56;70.83;95341.88;5083116;28;20189;-78
2021/01/08 08:31:27;;;;;;;11.60;9.43;;;;;;;2.52;70.99;95347.34;5080640;28;20193;-78
2021/01/08 08:33:54;;;;;;;14.10;10.53;;;;;;;2.58;71.00;95339.19;5085780;28;20203;-79
2021/01/08 08:36:25;;;;;;;12.30;9.50;;;;;;;2.56;70.55;95339.31;5075063;28;20196;-79
2021/01/08 08:38:58;;;;;;;12.10;8.97;;;;;;;2.61;70.30;95338.94;5086185;28;20188;-79
2021/01/08 08:41:25;;;;;;;11.60;9.37;;;;;;;2.66;70.08;95337.59;5081346;28;20192;-80
2021/01/08 08:43:59;;;;;;;12.50;10.07;;;;;;;2.72;69.76;95338.78;5082806;28;20192;-81
2021/01/08 08:46:25;;;;;;;11.77;9.90;;;;;;;2.60;69.63;95342.41;5087134;28;20742;-78
2021/01/08 08:48:52;;;;;;;11.47;9.27;;;;;;;2.60;69.73;95343.22;5081794;28;20197;-78
2021/01/08 08:51:24;;;;;;;11.57;9.70;;;;;;;2.57;69.68;95340.94;5072801;28;20196;-79
2021/01/08 08:53:57;;;;;;;10.47;9.33;;;;;;;2.55;69.91;95334.38;5076281;28;20208;-78
2021/01/08 08:56:23;;;;;;;10.33;8.70;;;;;;;2.59;70.18;95340.78;5072242;28;20201;-81
2021/01/08 08:58:49;;;;;;;11.73;9.60;;;;;;;2.60;70.19;95343.22;5086057;28;20203;-82
2021/01/08 09:01:14;;;;;;;11.90;9.57;;;;;;;2.49;70.20;95343.34;5079978;28;20189;-79
2021/01/08 09:03:40;;;;;;;11.37;9.10;;;;;;;2.54;70.41;95337.84;5090205;28;20573;-80
2021/01/08 09:06:09;;;;;;;12.27;9.60;;;;;;;2.59;69.92;95338.25;5073526;28;20216;-79
2021/01/08 09:08:39;;;;;;;11.13;9.23;;;;;;;2.69;69.70;95339.84;5075645;28;20200;-79
2021/01/08 09:11:17;;;;;;;10.90;9.10;;;;;;;2.62;69.38;95327.81;5070176;28;20205;-79
2021/01/08 09:13:51;;;;;;;11.17;9.17;;;;;;;2.57;69.64;95335.03;5079176;28;20202;-77
2021/01/08 09:16:25;;;;;;;10.77;9.20;;;;;;;2.50;69.88;95339.06;5088564;28;20230;-79
2021/01/08 09:18:59;;;;;;;12.97;9.63;;;;;;;2.52;69.96;95332.09;5082477;28;20196;-79
2021/01/08 09:21:31;;;;;;;11.47;8.90;;;;;;;2.52;70.35;95332.09;5078042;28;20200;-77
2021/01/08 09:24:00;;;;;;;10.43;8.70;;;;;;;2.49;70.04;95340.81;5089025;28;20683;-77
2021/01/08 09:26:29;;;;;;;10.07;8.33;;;;;;;2.34;70.52;95347.19;5072392;28;20223;-78
2021/01/08 09:28:55;;;;;;;10.37;7.87;;;;;;;2.27;70.99;95346.13;5081944;28;20313;-78
2021/01/08 09:31:38;;;;;;;9.53;8.53;;;;;;;2.41;70.94;95349.09;5087140;28;20185;-79
2021/01/08 09:34:04;;;;;;;11.30;9.07;;;;;;;2.48;70.55;95344.28;5073269;28;20219;-81
2021/01/08 09:36:31;;;;;;;11.27;8.97;;;;;;;2.44;70.73;95342.94;5085898;28;20200;-79
2021/01/08 09:39:00;;;;;;;9.53;8.37;;;;;;;2.50;70.45;95347.50;5075734;28;20196;-78
2021/01/08 09:41:26;;;;;;;10.27;8.40;;;;;;;2.52;70.19;95342.25;5087335;28;20575;-80
2021/01/08 09:43:57;;;;;;;11.13;8.97;;;;;;;2.68;69.67;95343.34;5089752;28;20202;-81
2021/01/08 09:46:24;;;;;;;10.53;8.87;;;;;;;2.84;69.46;95342.00;5072139;28;20227;-79
2021/01/08 09:48:50;;;;;;;11.00;8.77;;;;;;;2.77;69.25;95337.44;5086217;28;20197;-82
2021/01/08 09:51:16;;;;;;;10.57;8.87;;;;;;;2.79;68.97;95339.84;5086770;28;20220;-81
2021/01/08 09:53:41;;;;;;;11.00;9.10;;;;;;;2.84;69.41;95344.53;5075867;28;20192;-81
2021/01/08 09:56:16;;;;;;;10.60;8.77;;;;;;;2.78;68.64;95341.59;5084792;28;20311;-77
2021/01/08 09:58:42;;;;;;;10.30;8.63;;;;;;;2.89;68.60;95344.91;5074037;28;20253;-79
2021/01/08 10:01:12;;;;;;;10.37;8.80;;;;;;;2.95;68.65;95345.19;5080444;28;20204;-82
2021/01/08 10:03:38;;;;;;;10.63;8.80;;;;;;;2.91;68.47;95340.50;5085042;28;20192;-78
2021/01/08 10:06:09;;;;;;;10.57;8.40;;;;;;;2.96;68.15;95346.78;5084094;28;20242;-78
2021/01/08 10:08:35;;;;;;;10.10;8.00;;;;;;;3.09;68.51;95341.41;5075245;28;20617;-79
2021/01/08 10:11:01;;;;;;;9.50;8.03;;;;;;;2.92;67.45;95337.81;5079037;28;20211;-82
2021/01/08 10:13:28;;;;;;;9.43;8.27;;;;;;;2.86;67.54;95340.13;5078743;28;20204;-79
2021/01/08 10:15:56;;;;;;;10.13;8.73;;;;;;;2.93;68.05;95343.72;5083024;28;20863;-79
2021/01/08 10:18:24;;;;;;;9.70;8.60;;;;;;;2.98;67.68;95342.38;5075859;28;20228;-79
2021/01/08 10:20:52;;;;;;;9.57;8.07;;;;;;;3.10;67.46;95340.47;5075668;28;20200;-79
2021/01/08 10:23:20;;;;;;;9.07;7.93;;;;;;;3.03;67.05;95344.53;5078289;28;20200;-78
2021/01/08 10:25:46;;;;;;;9.57;8.20;;;;;;;3.10;67.05;95343.03;5075851;28;20624;-79
2021/01/08 10:28:15;;;;;;;9.27;8.00;;;;;;;3.18;66.78;95344.91;5069151;28;20247;-80
2021/01/08 10:30:43;;;;;;;10.70;8.57;;;;;;;3.28;66.65;95340.56;5068848;28;20189;-82
2021/01/08 10:33:10;;;;;;;8.40;7.37;;;;;;;3.27;66.12;95334.69;5068485;28;20189;-83
2021/01/08 10:35:37;;;;;;;9.57;7.90;;;;;;;3.44;65.72;95338.28;5068447;28;20213;-82
2021/01/08 10:38:03;;;;;;;9.53;7.57;;;;;;;3.43;64.83;95342.56;5068647;28;20649;-79
2021/01/08 10:40:29;;;;;;;9.20;7.60;;;;;;;3.50;64.55;95335.16;5067899;28;20192;-79
2021/01/08 10:42:55;;;;;;;8.57;7.67;;;;;;;3.61;64.03;95329.91;5069290;28;20201;-79
2021/01/08 10:45:22;;;;;;;9.23;7.93;;;;;;;3.60;64.15;95333.38;5069242;28;20906;-79
2021/01/08 10:47:48;;;;;;;9.53;8.07;;;;;;;3.67;63.79;95331.06;5068433;28;20220;-77
2021/01/08 10:50:15;;;;;;;9.10;7.67;;;;;;;3.71;63.46;95325.56;5074062;28;20245;-79
2021/01/08 10:52:44;;;;;;;8.10;7.30;;;;;;;3.85;63.65;95319.19;5080089;28;20694;-77
2021/01/08 10:55:10;;;;;;;8.97;7.87;;;;;;;3.83;62.92;95325.41;5084750;28;20239;-79
2021/01/08 10:57:37;;;;;;;9.47;7.60;;;;;;;3.94;63.08;95315.81;5083262;28;20204;-79
2021/01/08 11:00:05;;;;;;;8.70;7.70;;;;;;;4.01;62.10;95316.84;5080529;28;20231;-82
2021/01/08 11:02:30;;;;;;;8.50;7.40;;;;;;;4.00;62.10;95314.44;5092833;28;20197;-82
2021/01/08 11:04:57;;;;;;;8.30;7.33;;;;;;;4.03;62.44;95306.53;5086709;28;20592;-79
2021/01/08 11:07:23;;;;;;;9.33;7.90;;;;;;;4.19;62.06;95309.22;5082836;28;20216;-79
2021/01/08 11:09:49;;;;;;;10.83;7.93;;;;;;;4.19;61.56;95309.22;5079463;28;20238;-81
2021/01/08 11:12:15;;;;;;;8.30;7.40;;;;;;;4.37;61.31;95309.25;5090339;28;20561;-82
2021/01/08 11:14:41;;;;;;;8.00;7.20;;;;;;;4.64;60.78;95310.91;5088802;28;20223;-78
2021/01/08 11:17:07;;;;;;;8.33;7.43;;;;;;;4.65;60.34;95304.84;5090641;28;20227;-81
2021/01/08 11:19:33;;;;;;;8.43;7.10;;;;;;;4.68;59.68;95302.00;5081852;28;20223;-78
2021/01/08 11:22:00;;;;;;;8.13;7.33;;;;;;;4.59;59.79;95300.38;5087847;28;20686;-77
2021/01/08 11:24:26;;;;;;;8.10;7.10;;;;;;;4.57;60.25;95295.41;5088889;28;20220;-81
2021/01/08 11:26:52;;;;;;;8.33;7.17;;;;;;;4.51;59.03;95301.88;5081532;28;20825;-77
2021/01/08 11:29:17;;;;;;;7.90;7.07;;;;;;;4.48;59.21;95302.16;5086124;28;20703;-82
2021/01/08 11:31:43;;;;;;;8.53;6.83;;;;;;;4.37;59.60;95299.06;5085012;28;20196;-81